Terminal Aerodrome Forecast
Issued by NWS

Current Version | Previous Version | Text Only | Print | Product List | Glossary On
Versions: 1 2 3 4 5 6 7 8 9 10 11 12 13 14 15 16 17
000
FTUS43 KMQT 281721 AAB
TAFIWD
TAF AMD
KIWD 281721Z 2817/2912 26012KT P6SM BKN025
     FM282000 30008KT P6SM BKN040
     FM290100 32005KT P6SM BKN070
     FM290600 33004KT P6SM SCT080=

USA.gov is the U.S. government's official web portal to all federal, state and local government web resources and services.